sensor_id;sensor_type;location;lat;lon;timestamp;temperature;humidity
7688;DHT22;30781;48.154;11.554;2022-07-31T00:01:49;19.60;81.50
7688;DHT22;30781;48.154;11.554;2022-07-31T00:04:16;19.50;81.60
7688;DHT22;30781;48.154;11.554;2022-07-31T00:06:43;19.50;81.80
7688;DHT22;30781;48.154;11.554;2022-07-31T00:09:11;19.50;81.90
7688;DHT22;30781;48.154;11.554;2022-07-31T00:11:38;19.40;82.00
7688;DHT22;30781;48.154;11.554;2022-07-31T00:14:08;19.40;82.20
7688;DHT22;30781;48.154;11.554;2022-07-31T00:16:35;19.40;82.30
7688;DHT22;30781;48.154;11.554;2022-07-31T00:19:02;19.30;82.30
7688;DHT22;30781;48.154;11.554;2022-07-31T00:21:29;19.30;82.30
7688;DHT22;30781;48.154;11.554;2022-07-31T00:23:56;19.30;82.50
7688;DHT22;30781;48.154;11.554;2022-07-31T00:26:25;19.30;82.50
7688;DHT22;30781;48.154;11.554;2022-07-31T00:28:52;19.30;82.70
7688;DHT22;30781;48.154;11.554;2022-07-31T00:31:19;19.20;82.70
7688;DHT22;30781;48.154;11.554;2022-07-31T00:33:46;19.20;82.90
7688;DHT22;30781;48.154;11.554;2022-07-31T00:36:13;19.20;83.00
7688;DHT22;30781;48.154;11.554;2022-07-31T00:38:40;19.20;83.30
7688;DHT22;30781;48.154;11.554;2022-07-31T00:41:07;19.10;83.40
7688;DHT22;30781;48.154;11.554;2022-07-31T00:43:35;19.10;83.60
7688;DHT22;30781;48.154;11.554;2022-07-31T00:46:02;19.10;83.80
7688;DHT22;30781;48.154;11.554;2022-07-31T00:48:29;19.10;83.90
7688;DHT22;30781;48.154;11.554;2022-07-31T00:50:56;19.10;84.90
7688;DHT22;30781;48.154;11.554;2022-07-31T00:53:24;19.10;84.10
7688;DHT22;30781;48.154;11.554;2022-07-31T00:55:51;19.00;84.00
7688;DHT22;30781;48.154;11.554;2022-07-31T00:58:18;19.00;84.80
7688;DHT22;30781;48.154;11.554;2022-07-31T01:00:47;19.00;84.70
7688;DHT22;30781;48.154;11.554;2022-07-31T01:03:14;18.90;84.90
7688;DHT22;30781;48.154;11.554;2022-07-31T01:05:41;18.90;85.20
7688;DHT22;30781;48.154;11.554;2022-07-31T01:08:08;18.90;85.70
7688;DHT22;30781;48.154;11.554;2022-07-31T01:10:48;18.90;85.70
7688;DHT22;30781;48.154;11.554;2022-07-31T01:13:27;18.80;85.80
7688;DHT22;30781;48.154;11.554;2022-07-31T01:15:57;18.80;85.90
7688;DHT22;30781;48.154;11.554;2022-07-31T01:18:26;18.80;86.00
7688;DHT22;30781;48.154;11.554;2022-07-31T01:20:58;18.80;85.90
7688;DHT22;30781;48.154;11.554;2022-07-31T01:23:54;18.90;85.80
7688;DHT22;30781;48.154;11.554;2022-07-31T01:26:35;18.90;85.50
7688;DHT22;30781;48.154;11.554;2022-07-31T01:29:15;18.90;85.40
7688;DHT22;30781;48.154;11.554;2022-07-31T01:31:47;18.90;85.40
7688;DHT22;30781;48.154;11.554;2022-07-31T01:34:23;19.00;85.30
7688;DHT22;30781;48.154;11.554;2022-07-31T01:36:57;19.00;85.10
7688;DHT22;30781;48.154;11.554;2022-07-31T01:39:26;19.00;84.90
7688;DHT22;30781;48.154;11.554;2022-07-31T01:41:55;19.10;84.80
7688;DHT22;30781;48.154;11.554;2022-07-31T01:44:26;19.10;84.30
7688;DHT22;30781;48.154;11.554;2022-07-31T01:46:55;19.20;84.30
7688;DHT22;30781;48.154;11.554;2022-07-31T01:49:25;19.20;83.90
7688;DHT22;30781;48.154;11.554;2022-07-31T01:51:53;19.20;83.70
7688;DHT22;30781;48.154;11.554;2022-07-31T01:54:21;19.30;83.40
7688;DHT22;30781;48.154;11.554;2022-07-31T01:56:51;19.30;83.30
7688;DHT22;30781;48.154;11.554;2022-07-31T01:59:20;19.30;83.20
7688;DHT22;30781;48.154;11.554;2022-07-31T02:01:49;19.30;83.00
7688;DHT22;30781;48.154;11.554;2022-07-31T02:04:19;19.40;83.00
7688;DHT22;30781;48.154;11.554;2022-07-31T02:06:46;19.40;82.80
7688;DHT22;30781;48.154;11.554;2022-07-31T02:09:16;19.40;82.60
7688;DHT22;30781;48.154;11.554;2022-07-31T02:11:45;19.40;82.30
7688;DHT22;30781;48.154;11.554;2022-07-31T02:14:13;19.40;82.00
7688;DHT22;30781;48.154;11.554;2022-07-31T02:16:42;19.30;81.90
7688;DHT22;30781;48.154;11.554;2022-07-31T02:19:13;19.30;81.90
7688;DHT22;30781;48.154;11.554;2022-07-31T02:21:40;19.30;81.90
7688;DHT22;30781;48.154;11.554;2022-07-31T02:24:07;19.30;81.90
7688;DHT22;30781;48.154;11.554;2022-07-31T02:26:35;19.30;81.80
7688;DHT22;30781;48.154;11.554;2022-07-31T02:29:03;19.30;81.50
7688;DHT22;30781;48.154;11.554;2022-07-31T02:31:34;19.20;81.30
7688;DHT22;30781;48.154;11.554;2022-07-31T02:34:01;19.30;81.30
7688;DHT22;30781;48.154;11.554;2022-07-31T02:36:32;19.30;81.00
7688;DHT22;30781;48.154;11.554;2022-07-31T02:39:01;19.30;80.80
7688;DHT22;30781;48.154;11.554;2022-07-31T02:41:28;19.30;80.50
7688;DHT22;30781;48.154;11.554;2022-07-31T02:43:56;19.30;80.30
7688;DHT22;30781;48.154;11.554;2022-07-31T02:46:24;19.30;80.10
7688;DHT22;30781;48.154;11.554;2022-07-31T02:48:53;19.30;80.20
7688;DHT22;30781;48.154;11.554;2022-07-31T02:51:22;19.30;80.20
7688;DHT22;30781;48.154;11.554;2022-07-31T02:53:50;19.30;80.20
7688;DHT22;30781;48.154;11.554;2022-07-31T02:56:18;19.20;80.10
7688;DHT22;30781;48.154;11.554;2022-07-31T02:58:45;19.30;80.20
7688;DHT22;30781;48.154;11.554;2022-07-31T03:01:12;19.30;80.20
7688;DHT22;30781;48.154;11.554;2022-07-31T03:03:39;19.30;80.20
7688;DHT22;30781;48.154;11.554;2022-07-31T03:06:06;19.30;79.90
7688;DHT22;30781;48.154;11.554;2022-07-31T03:08:34;19.40;79.80
7688;DHT22;30781;48.154;11.554;2022-07-31T03:11:02;19.40;79.70
7688;DHT22;30781;48.154;11.554;2022-07-31T03:13:31;19.40;79.70
7688;DHT22;30781;48.154;11.554;2022-07-31T03:16:00;19.40;79.70
7688;DHT22;30781;48.154;11.554;2022-07-31T03:18:28;19.40;79.70
7688;DHT22;30781;48.154;11.554;2022-07-31T03:20:57;19.40;79.70
7688;DHT22;30781;48.154;11.554;2022-07-31T03:23:25;19.40;79.50
7688;DHT22;30781;48.154;11.554;2022-07-31T03:25:53;19.50;79.50
7688;DHT22;30781;48.154;11.554;2022-07-31T03:28:22;19.50;79.30
7688;DHT22;30781;48.154;11.554;2022-07-31T03:30:50;19.50;79.30
7688;DHT22;30781;48.154;11.554;2022-07-31T03:33:18;19.50;79.50
7688;DHT22;30781;48.154;11.554;2022-07-31T03:35:45;19.50;79.30
7688;DHT22;30781;48.154;11.554;2022-07-31T03:38:12;19.50;79.20
7688;DHT22;30781;48.154;11.554;2022-07-31T03:40:39;19.50;79.20
7688;DHT22;30781;48.154;11.554;2022-07-31T03:43:06;19.50;79.20
7688;DHT22;30781;48.154;11.554;2022-07-31T03:45:37;19.50;79.20
7688;DHT22;30781;48.154;11.554;2022-07-31T03:48:05;19.50;79.30
7688;DHT22;30781;48.154;11.554;2022-07-31T03:50:34;19.50;79.20
7688;DHT22;30781;48.154;11.554;2022-07-31T03:53:02;19.40;79.10
7688;DHT22;30781;48.154;11.554;2022-07-31T03:55:31;19.40;79.30
7688;DHT22;30781;48.154;11.554;2022-07-31T03:57:59;19.40;79.40
7688;DHT22;30781;48.154;11.554;2022-07-31T04:00:28;19.40;79.60
7688;DHT22;30781;48.154;11.554;2022-07-31T04:02:57;19.30;79.60
7688;DHT22;30781;48.154;11.554;2022-07-31T04:05:30;19.30;79.70
7688;DHT22;30781;48.154;11.554;2022-07-31T04:07:57;19.30;79.80
7688;DHT22;30781;48.154;11.554;2022-07-31T04:10:25;19.20;80.20
7688;DHT22;30781;48.154;11.554;2022-07-31T04:12:52;19.20;80.30
7688;DHT22;30781;48.154;11.554;2022-07-31T04:15:19;19.20;80.30
7688;DHT22;30781;48.154;11.554;2022-07-31T04:17:46;19.20;80.10
7688;DHT22;30781;48.154;11.554;2022-07-31T04:20:15;19.30;80.20
7688;DHT22;30781;48.154;11.554;2022-07-31T04:22:43;19.30;80.30
7688;DHT22;30781;48.154;11.554;2022-07-31T04:25:10;19.30;80.10
7688;DHT22;30781;48.154;11.554;2022-07-31T04:27:37;19.30;79.70
7688;DHT22;30781;48.154;11.554;2022-07-31T04:30:05;19.30;79.50
7688;DHT22;30781;48.154;11.554;2022-07-31T04:32:33;19.30;79.40
7688;DHT22;30781;48.154;11.554;2022-07-31T04:35:00;19.40;79.40
7688;DHT22;30781;48.154;11.554;2022-07-31T04:37:28;19.40;79.20
7688;DHT22;30781;48.154;11.554;2022-07-31T04:39:55;19.40;79.10
7688;DHT22;30781;48.154;11.554;2022-07-31T04:42:22;19.50;79.10
7688;DHT22;30781;48.154;11.554;2022-07-31T04:44:49;19.50;79.00
7688;DHT22;30781;48.154;11.554;2022-07-31T04:47:16;19.50;78.90
7688;DHT22;30781;48.154;11.554;2022-07-31T04:49:43;19.50;78.80
7688;DHT22;30781;48.154;11.554;2022-07-31T04:52:11;19.50;78.70
7688;DHT22;30781;48.154;11.554;2022-07-31T04:54:39;19.60;78.70
7688;DHT22;30781;48.154;11.554;2022-07-31T04:57:06;19.60;78.70
7688;DHT22;30781;48.154;11.554;2022-07-31T04:59:33;19.70;78.70
7688;DHT22;30781;48.154;11.554;2022-07-31T05:02:00;19.70;78.50
7688;DHT22;30781;48.154;11.554;2022-07-31T05:04:27;19.80;78.40
7688;DHT22;30781;48.154;11.554;2022-07-31T05:06:54;20.00;79.00
7688;DHT22;30781;48.154;11.554;2022-07-31T05:09:22;20.20;77.90
7688;DHT22;30781;48.154;11.554;2022-07-31T05:11:51;20.30;77.50
7688;DHT22;30781;48.154;11.554;2022-07-31T05:14:19;20.50;77.00
7688;DHT22;30781;48.154;11.554;2022-07-31T05:16:47;20.60;76.50
7688;DHT22;30781;48.154;11.554;2022-07-31T05:19:15;20.70;76.20
7688;DHT22;30781;48.154;11.554;2022-07-31T05:21:43;20.80;75.80
7688;DHT22;30781;48.154;11.554;2022-07-31T05:24:10;20.90;75.70
7688;DHT22;30781;48.154;11.554;2022-07-31T05:26:37;20.90;75.40
7688;DHT22;30781;48.154;11.554;2022-07-31T05:29:05;20.90;75.10
7688;DHT22;30781;48.154;11.554;2022-07-31T05:31:32;20.90;74.90
7688;DHT22;30781;48.154;11.554;2022-07-31T05:34:00;20.90;74.80
7688;DHT22;30781;48.154;11.554;2022-07-31T05:36:27;20.90;74.70
7688;DHT22;30781;48.154;11.554;2022-07-31T05:38:54;20.90;74.40
7688;DHT22;30781;48.154;11.554;2022-07-31T05:41:21;21.00;74.40
7688;DHT22;30781;48.154;11.554;2022-07-31T05:43:48;21.10;74.40
7688;DHT22;30781;48.154;11.554;2022-07-31T05:46:16;21.20;74.30
7688;DHT22;30781;48.154;11.554;2022-07-31T05:48:43;21.40;73.90
7688;DHT22;30781;48.154;11.554;2022-07-31T05:51:12;21.60;73.20
7688;DHT22;30781;48.154;11.554;2022-07-31T05:53:40;21.90;72.90
7688;DHT22;30781;48.154;11.554;2022-07-31T05:56:07;22.10;72.20
7688;DHT22;30781;48.154;11.554;2022-07-31T05:58:35;22.30;71.00
7688;DHT22;30781;48.154;11.554;2022-07-31T06:01:03;22.60;70.50
7688;DHT22;30781;48.154;11.554;2022-07-31T06:03:32;22.70;69.80
7688;DHT22;30781;48.154;11.554;2022-07-31T06:06:02;22.90;69.10
7688;DHT22;30781;48.154;11.554;2022-07-31T06:08:30;23.00;68.50
7688;DHT22;30781;48.154;11.554;2022-07-31T06:10:58;23.20;68.40
7688;DHT22;30781;48.154;11.554;2022-07-31T06:13:25;23.40;67.60
7688;DHT22;30781;48.154;11.554;2022-07-31T06:15:55;23.60;67.30
7688;DHT22;30781;48.154;11.554;2022-07-31T06:18:22;23.90;66.50
7688;DHT22;30781;48.154;11.554;2022-07-31T06:20:51;24.20;65.60
7688;DHT22;30781;48.154;11.554;2022-07-31T06:23:18;24.40;64.80
7688;DHT22;30781;48.154;11.554;2022-07-31T06:25:45;24.40;64.10
7688;DHT22;30781;48.154;11.554;2022-07-31T06:28:12;24.50;64.20
7688;DHT22;30781;48.154;11.554;2022-07-31T06:30:40;24.60;63.60
7688;DHT22;30781;48.154;11.554;2022-07-31T06:33:07;24.60;63.20
7688;DHT22;30781;48.154;11.554;2022-07-31T06:35:34;24.60;63.50
7688;DHT22;30781;48.154;11.554;2022-07-31T06:38:02;24.60;63.20
7688;DHT22;30781;48.154;11.554;2022-07-31T06:40:29;24.70;63.10
7688;DHT22;30781;48.154;11.554;2022-07-31T06:42:56;24.80;63.00
7688;DHT22;30781;48.154;11.554;2022-07-31T06:45:23;24.80;62.70
7688;DHT22;30781;48.154;11.554;2022-07-31T06:47:50;24.90;61.90
7688;DHT22;30781;48.154;11.554;2022-07-31T06:50:17;25.00;61.50
7688;DHT22;30781;48.154;11.554;2022-07-31T06:52:44;25.00;60.50
7688;DHT22;30781;48.154;11.554;2022-07-31T06:55:13;24.90;60.40
7688;DHT22;30781;48.154;11.554;2022-07-31T06:57:40;24.80;60.00
7688;DHT22;30781;48.154;11.554;2022-07-31T07:00:07;24.80;60.30
7688;DHT22;30781;48.154;11.554;2022-07-31T07:02:35;24.70;60.40
7688;DHT22;30781;48.154;11.554;2022-07-31T07:05:03;24.70;60.40
7688;DHT22;30781;48.154;11.554;2022-07-31T07:07:31;24.70;60.50
7688;DHT22;30781;48.154;11.554;2022-07-31T07:10:00;24.70;60.30
7688;DHT22;30781;48.154;11.554;2022-07-31T07:12:28;24.60;60.50
7688;DHT22;30781;48.154;11.554;2022-07-31T07:14:55;24.50;60.80
7688;DHT22;30781;48.154;11.554;2022-07-31T07:17:22;24.60;60.90
7688;DHT22;30781;48.154;11.554;2022-07-31T07:19:49;24.60;60.90
7688;DHT22;30781;48.154;11.554;2022-07-31T07:22:16;24.70;61.00
7688;DHT22;30781;48.154;11.554;2022-07-31T07:24:43;24.80;60.70
7688;DHT22;30781;48.154;11.554;2022-07-31T07:27:10;24.90;60.50
7688;DHT22;30781;48.154;11.554;2022-07-31T07:29:39;25.10;60.20
7688;DHT22;30781;48.154;11.554;2022-07-31T07:32:06;25.20;59.80
7688;DHT22;30781;48.154;11.554;2022-07-31T07:34:34;25.40;59.40
7688;DHT22;30781;48.154;11.554;2022-07-31T07:37:01;25.50;59.20
7688;DHT22;30781;48.154;11.554;2022-07-31T07:39:28;25.60;58.70
7688;DHT22;30781;48.154;11.554;2022-07-31T07:41:56;25.70;58.20
7688;DHT22;30781;48.154;11.554;2022-07-31T07:44:23;25.80;57.90
7688;DHT22;30781;48.154;11.554;2022-07-31T07:46:52;25.90;57.80
7688;DHT22;30781;48.154;11.554;2022-07-31T07:49:19;26.00;57.70
7688;DHT22;30781;48.154;11.554;2022-07-31T07:51:46;26.00;58.50
7688;DHT22;30781;48.154;11.554;2022-07-31T07:54:13;26.10;57.50
7688;DHT22;30781;48.154;11.554;2022-07-31T07:56:40;26.10;57.40
7688;DHT22;30781;48.154;11.554;2022-07-31T07:59:09;26.20;56.60
7688;DHT22;30781;48.154;11.554;2022-07-31T08:01:37;26.40;56.60
7688;DHT22;30781;48.154;11.554;2022-07-31T08:04:06;26.50;55.70
7688;DHT22;30781;48.154;11.554;2022-07-31T08:06:33;26.50;55.50
7688;DHT22;30781;48.154;11.554;2022-07-31T08:09:00;26.60;55.20
7688;DHT22;30781;48.154;11.554;2022-07-31T08:11:27;26.60;54.80
7688;DHT22;30781;48.154;11.554;2022-07-31T08:13:54;26.70;54.50
7688;DHT22;30781;48.154;11.554;2022-07-31T08:16:21;26.80;54.10
7688;DHT22;30781;48.154;11.554;2022-07-31T08:18:49;26.90;54.20
7688;DHT22;30781;48.154;11.554;2022-07-31T08:21:19;26.90;53.60
7688;DHT22;30781;48.154;11.554;2022-07-31T08:23:46;27.00;53.60
7688;DHT22;30781;48.154;11.554;2022-07-31T08:26:13;27.10;53.40
7688;DHT22;30781;48.154;11.554;2022-07-31T08:28:41;27.20;52.90
7688;DHT22;30781;48.154;11.554;2022-07-31T08:31:08;27.40;52.90
7688;DHT22;30781;48.154;11.554;2022-07-31T08:33:36;27.80;52.50
7688;DHT22;30781;48.154;11.554;2022-07-31T08:36:03;28.20;51.90
7688;DHT22;30781;48.154;11.554;2022-07-31T08:38:35;28.60;51.30
7688;DHT22;30781;48.154;11.554;2022-07-31T08:41:03;29.20;50.40
7688;DHT22;30781;48.154;11.554;2022-07-31T08:43:30;30.00;49.60
7688;DHT22;30781;48.154;11.554;2022-07-31T08:45:58;30.70;47.20
7688;DHT22;30781;48.154;11.554;2022-07-31T08:48:30;31.40;46.10
7688;DHT22;30781;48.154;11.554;2022-07-31T08:50:57;32.20;44.70
7688;DHT22;30781;48.154;11.554;2022-07-31T08:53:25;32.90;43.60
7688;DHT22;30781;48.154;11.554;2022-07-31T08:55:55;33.50;42.20
7688;DHT22;30781;48.154;11.554;2022-07-31T08:58:22;34.10;41.20
7688;DHT22;30781;48.154;11.554;2022-07-31T09:00:49;34.50;40.50
7688;DHT22;30781;48.154;11.554;2022-07-31T09:03:17;34.90;39.00
7688;DHT22;30781;48.154;11.554;2022-07-31T09:05:44;35.00;38.20
7688;DHT22;30781;48.154;11.554;2022-07-31T09:08:11;35.10;37.90
7688;DHT22;30781;48.154;11.554;2022-07-31T09:10:38;35.20;37.90
7688;DHT22;30781;48.154;11.554;2022-07-31T09:13:13;35.40;37.60
7688;DHT22;30781;48.154;11.554;2022-07-31T09:15:41;35.50;36.80
7688;DHT22;30781;48.154;11.554;2022-07-31T09:18:16;35.70;36.70
7688;DHT22;30781;48.154;11.554;2022-07-31T09:20:53;36.00;35.40
7688;DHT22;30781;48.154;11.554;2022-07-31T09:23:21;36.20;35.40
7688;DHT22;30781;48.154;11.554;2022-07-31T09:25:53;36.20;33.80
7688;DHT22;30781;48.154;11.554;2022-07-31T09:28:30;36.20;33.80
7688;DHT22;30781;48.154;11.554;2022-07-31T09:30:58;36.10;33.20
7688;DHT22;30781;48.154;11.554;2022-07-31T09:33:27;35.90;33.40
7688;DHT22;30781;48.154;11.554;2022-07-31T09:35:56;35.60;33.10
7688;DHT22;30781;48.154;11.554;2022-07-31T09:38:29;35.10;33.60
7688;DHT22;30781;48.154;11.554;2022-07-31T09:41:06;34.60;33.70
7688;DHT22;30781;48.154;11.554;2022-07-31T09:43:35;34.10;34.40
7688;DHT22;30781;48.154;11.554;2022-07-31T09:46:03;33.40;35.00
7688;DHT22;30781;48.154;11.554;2022-07-31T09:48:30;32.80;34.10
7688;DHT22;30781;48.154;11.554;2022-07-31T09:50:59;32.20;35.30
7688;DHT22;30781;48.154;11.554;2022-07-31T09:53:39;31.80;36.60
7688;DHT22;30781;48.154;11.554;2022-07-31T09:56:06;31.30;37.60
7688;DHT22;30781;48.154;11.554;2022-07-31T09:58:39;30.90;37.70
7688;DHT22;30781;48.154;11.554;2022-07-31T10:01:09;30.40;37.70
7688;DHT22;30781;48.154;11.554;2022-07-31T10:03:37;30.10;38.00
7688;DHT22;30781;48.154;11.554;2022-07-31T10:06:05;29.80;38.20
7688;DHT22;30781;48.154;11.554;2022-07-31T10:08:35;29.50;38.60
7688;DHT22;30781;48.154;11.554;2022-07-31T10:11:03;29.20;38.40
7688;DHT22;30781;48.154;11.554;2022-07-31T10:13:34;28.90;37.30
7688;DHT22;30781;48.154;11.554;2022-07-31T10:16:04;28.70;38.60
7688;DHT22;30781;48.154;11.554;2022-07-31T10:18:37;28.40;38.90
7688;DHT22;30781;48.154;11.554;2022-07-31T10:21:05;28.20;38.80
7688;DHT22;30781;48.154;11.554;2022-07-31T10:23:39;28.00;39.60
7688;DHT22;30781;48.154;11.554;2022-07-31T10:26:06;27.90;40.20
7688;DHT22;30781;48.154;11.554;2022-07-31T10:28:36;27.70;40.20
7688;DHT22;30781;48.154;11.554;2022-07-31T10:31:04;27.60;40.30
7688;DHT22;30781;48.154;11.554;2022-07-31T10:33:32;27.50;40.80
7688;DHT22;30781;48.154;11.554;2022-07-31T10:36:04;27.40;40.80
7688;DHT22;30781;48.154;11.554;2022-07-31T10:38:39;27.40;41.00
7688;DHT22;30781;48.154;11.554;2022-07-31T10:41:13;27.40;40.70
7688;DHT22;30781;48.154;11.554;2022-07-31T10:43:47;27.40;40.90
7688;DHT22;30781;48.154;11.554;2022-07-31T10:46:27;27.30;40.60
7688;DHT22;30781;48.154;11.554;2022-07-31T10:48:54;27.30;40.70
7688;DHT22;30781;48.154;11.554;2022-07-31T10:51:22;27.20;41.00
7688;DHT22;30781;48.154;11.554;2022-07-31T10:53:53;27.30;41.50
7688;DHT22;30781;48.154;11.554;2022-07-31T10:56:21;27.30;41.70
7688;DHT22;30781;48.154;11.554;2022-07-31T10:58:49;27.30;41.50
7688;DHT22;30781;48.154;11.554;2022-07-31T11:01:16;27.30;41.90
7688;DHT22;30781;48.154;11.554;2022-07-31T11:03:46;27.40;41.80
7688;DHT22;30781;48.154;11.554;2022-07-31T11:06:15;27.50;41.60
7688;DHT22;30781;48.154;11.554;2022-07-31T11:08:43;27.70;41.40
7688;DHT22;30781;48.154;11.554;2022-07-31T11:11:11;27.90;41.20
7688;DHT22;30781;48.154;11.554;2022-07-31T11:13:46;28.00;41.30
7688;DHT22;30781;48.154;11.554;2022-07-31T11:16:14;28.30;40.80
7688;DHT22;30781;48.154;11.554;2022-07-31T11:18:41;28.50;40.40
7688;DHT22;30781;48.154;11.554;2022-07-31T11:21:12;28.80;40.20
7688;DHT22;30781;48.154;11.554;2022-07-31T11:23:39;29.00;39.50
7688;DHT22;30781;48.154;11.554;2022-07-31T11:26:07;29.20;39.80
7688;DHT22;30781;48.154;11.554;2022-07-31T11:28:34;29.50;39.20
7688;DHT22;30781;48.154;11.554;2022-07-31T11:31:03;29.70;38.90
7688;DHT22;30781;48.154;11.554;2022-07-31T11:33:33;29.90;38.80
7688;DHT22;30781;48.154;11.554;2022-07-31T11:36:08;30.10;38.50
7688;DHT22;30781;48.154;11.554;2022-07-31T11:38:38;30.30;37.90
7688;DHT22;30781;48.154;11.554;2022-07-31T11:41:06;30.40;37.80
7688;DHT22;30781;48.154;11.554;2022-07-31T11:43:33;30.60;37.50
7688;DHT22;30781;48.154;11.554;2022-07-31T11:46:02;30.80;37.20
7688;DHT22;30781;48.154;11.554;2022-07-31T11:48:30;30.80;37.10
7688;DHT22;30781;48.154;11.554;2022-07-31T11:50:57;30.80;37.10
7688;DHT22;30781;48.154;11.554;2022-07-31T11:53:25;31.00;37.20
7688;DHT22;30781;48.154;11.554;2022-07-31T11:55:55;31.30;36.20
7688;DHT22;30781;48.154;11.554;2022-07-31T11:58:23;31.50;35.50
7688;DHT22;30781;48.154;11.554;2022-07-31T12:00:52;31.60;34.70
7688;DHT22;30781;48.154;11.554;2022-07-31T12:03:21;31.70;35.70
7688;DHT22;30781;48.154;11.554;2022-07-31T12:05:49;31.70;34.80
7688;DHT22;30781;48.154;11.554;2022-07-31T12:08:17;31.70;34.70
7688;DHT22;30781;48.154;11.554;2022-07-31T12:10:45;31.70;34.50
7688;DHT22;30781;48.154;11.554;2022-07-31T12:13:15;31.50;34.60
7688;DHT22;30781;48.154;11.554;2022-07-31T12:15:53;31.40;35.10
7688;DHT22;30781;48.154;11.554;2022-07-31T12:18:21;31.40;35.30
7688;DHT22;30781;48.154;11.554;2022-07-31T12:20:51;31.50;35.40
7688;DHT22;30781;48.154;11.554;2022-07-31T12:23:19;31.50;34.60
7688;DHT22;30781;48.154;11.554;2022-07-31T12:25:46;31.50;34.60
7688;DHT22;30781;48.154;11.554;2022-07-31T12:28:15;31.60;34.70
7688;DHT22;30781;48.154;11.554;2022-07-31T12:30:43;31.60;35.10
7688;DHT22;30781;48.154;11.554;2022-07-31T12:33:11;31.50;34.80
7688;DHT22;30781;48.154;11.554;2022-07-31T12:35:40;31.40;35.50
7688;DHT22;30781;48.154;11.554;2022-07-31T12:38:08;31.30;35.70
7688;DHT22;30781;48.154;11.554;2022-07-31T12:40:35;31.30;35.50
7688;DHT22;30781;48.154;11.554;2022-07-31T12:43:02;31.30;35.40
7688;DHT22;30781;48.154;11.554;2022-07-31T12:45:33;31.10;35.60
7688;DHT22;30781;48.154;11.554;2022-07-31T12:48:02;31.00;35.90
7688;DHT22;30781;48.154;11.554;2022-07-31T12:50:30;31.00;36.70
7688;DHT22;30781;48.154;11.554;2022-07-31T12:52:59;30.90;36.60
7688;DHT22;30781;48.154;11.554;2022-07-31T12:55:28;30.90;36.70
7688;DHT22;30781;48.154;11.554;2022-07-31T12:57:55;31.00;36.80
7688;DHT22;30781;48.154;11.554;2022-07-31T13:00:24;31.20;37.70
7688;DHT22;30781;48.154;11.554;2022-07-31T13:02:54;31.20;36.60
7688;DHT22;30781;48.154;11.554;2022-07-31T13:05:22;31.30;36.40
7688;DHT22;30781;48.154;11.554;2022-07-31T13:07:50;31.30;36.00
7688;DHT22;30781;48.154;11.554;2022-07-31T13:10:17;31.30;36.20
7688;DHT22;30781;48.154;11.554;2022-07-31T13:12:45;31.40;35.70
7688;DHT22;30781;48.154;11.554;2022-07-31T13:15:15;31.50;36.20
7688;DHT22;30781;48.154;11.554;2022-07-31T13:17:42;31.60;35.90
7688;DHT22;30781;48.154;11.554;2022-07-31T13:20:11;31.70;35.50
7688;DHT22;30781;48.154;11.554;2022-07-31T13:22:39;31.70;35.70
7688;DHT22;30781;48.154;11.554;2022-07-31T13:25:06;31.70;35.20
7688;DHT22;30781;48.154;11.554;2022-07-31T13:27:33;31.60;34.70
7688;DHT22;30781;48.154;11.554;2022-07-31T13:30:01;31.40;33.90
7688;DHT22;30781;48.154;11.554;2022-07-31T13:32:28;31.30;34.50
7688;DHT22;30781;48.154;11.554;2022-07-31T13:34:56;31.20;35.30
7688;DHT22;30781;48.154;11.554;2022-07-31T13:37:25;31.00;34.50
7688;DHT22;30781;48.154;11.554;2022-07-31T13:39:52;30.90;34.50
7688;DHT22;30781;48.154;11.554;2022-07-31T13:42:19;30.80;35.20
7688;DHT22;30781;48.154;11.554;2022-07-31T13:44:46;30.80;35.80
7688;DHT22;30781;48.154;11.554;2022-07-31T13:47:13;30.80;35.80
7688;DHT22;30781;48.154;11.554;2022-07-31T13:49:40;30.80;35.40
7688;DHT22;30781;48.154;11.554;2022-07-31T13:52:07;30.70;35.80
7688;DHT22;30781;48.154;11.554;2022-07-31T13:54:35;30.50;36.30
7688;DHT22;30781;48.154;11.554;2022-07-31T13:57:03;30.40;36.60
7688;DHT22;30781;48.154;11.554;2022-07-31T13:59:31;30.30;37.00
7688;DHT22;30781;48.154;11.554;2022-07-31T14:01:58;30.20;37.40
7688;DHT22;30781;48.154;11.554;2022-07-31T14:04:26;30.10;37.20
7688;DHT22;30781;48.154;11.554;2022-07-31T14:06:53;29.90;37.50
7688;DHT22;30781;48.154;11.554;2022-07-31T14:09:20;29.80;37.70
7688;DHT22;30781;48.154;11.554;2022-07-31T14:11:49;29.70;37.70
7688;DHT22;30781;48.154;11.554;2022-07-31T14:14:16;29.80;38.20
7688;DHT22;30781;48.154;11.554;2022-07-31T14:16:43;29.80;37.90
7688;DHT22;30781;48.154;11.554;2022-07-31T14:19:10;29.70;37.50
7688;DHT22;30781;48.154;11.554;2022-07-31T14:21:39;29.80;38.00
7688;DHT22;30781;48.154;11.554;2022-07-31T14:24:06;29.90;37.80
7688;DHT22;30781;48.154;11.554;2022-07-31T14:26:33;30.00;37.90
7688;DHT22;30781;48.154;11.554;2022-07-31T14:29:02;30.10;37.90
7688;DHT22;30781;48.154;11.554;2022-07-31T14:31:29;30.20;37.60
7688;DHT22;30781;48.154;11.554;2022-07-31T14:33:56;30.20;37.70
7688;DHT22;30781;48.154;11.554;2022-07-31T14:36:23;30.20;37.80
7688;DHT22;30781;48.154;11.554;2022-07-31T14:38:50;30.20;37.70
7688;DHT22;30781;48.154;11.554;2022-07-31T14:41:17;30.30;37.80
7688;DHT22;30781;48.154;11.554;2022-07-31T14:43:44;30.20;37.30
7688;DHT22;30781;48.154;11.554;2022-07-31T14:46:13;30.20;37.30
7688;DHT22;30781;48.154;11.554;2022-07-31T14:48:40;30.20;37.10
7688;DHT22;30781;48.154;11.554;2022-07-31T14:51:07;30.20;36.80
7688;DHT22;30781;48.154;11.554;2022-07-31T14:53:34;30.20;36.20
7688;DHT22;30781;48.154;11.554;2022-07-31T14:56:01;30.20;36.00
7688;DHT22;30781;48.154;11.554;2022-07-31T14:58:29;30.20;36.70
7688;DHT22;30781;48.154;11.554;2022-07-31T15:00:56;30.10;36.10
7688;DHT22;30781;48.154;11.554;2022-07-31T15:03:25;30.10;36.30
7688;DHT22;30781;48.154;11.554;2022-07-31T15:05:52;30.10;36.50
7688;DHT22;30781;48.154;11.554;2022-07-31T15:08:19;30.10;36.60
7688;DHT22;30781;48.154;11.554;2022-07-31T15:10:46;30.10;36.60
7688;DHT22;30781;48.154;11.554;2022-07-31T15:13:13;30.10;36.60
7688;DHT22;30781;48.154;11.554;2022-07-31T15:15:40;30.10;36.60
7688;DHT22;30781;48.154;11.554;2022-07-31T15:18:07;30.00;36.50
7688;DHT22;30781;48.154;11.554;2022-07-31T15:20:36;30.00;36.30
7688;DHT22;30781;48.154;11.554;2022-07-31T15:23:03;30.10;36.50
7688;DHT22;30781;48.154;11.554;2022-07-31T15:25:30;30.10;36.60
7688;DHT22;30781;48.154;11.554;2022-07-31T15:27:57;30.10;36.30
7688;DHT22;30781;48.154;11.554;2022-07-31T15:30:24;30.20;36.40
7688;DHT22;30781;48.154;11.554;2022-07-31T15:32:52;30.20;36.50
7688;DHT22;30781;48.154;11.554;2022-07-31T15:35:19;30.30;36.20
7688;DHT22;30781;48.154;11.554;2022-07-31T15:37:47;30.40;36.00